Home > Products > Valid Products > MTR

000
SAUS45 KPIH 021152
MTRSNT
METAR KSNT 021151Z AUTO 16003KT M02/M03 A3014 RMK AO1 SLP147
T10221033 10039 21022 58004





000
SAUS45 KPIH 021052
MTRSNT
METAR KSNT 021051Z AUTO 17004KT 00/M03 A3015 RMK AO1 SLP145
T00001028





000
SAUS45 KPIH 020952
MTRSNT
METAR KSNT 020951Z AUTO 19004KT 01/M02 A3015 RMK AO1 SLP142
T00111017





000
SAUS45 KPIH 020852
MTRSNT
METAR KSNT 020851Z AUTO 00000KT 00/M02 A3016 RMK AO1 SLP150
T00001022 50000





000
SAUS45 KPIH 020752
MTRSNT
METAR KSNT 020751Z AUTO 17004KT 01/M02 A3017 RMK AO1 SLP150
T00111022





000
SAUS45 KPIH 020652
MTRSNT
METAR KSNT 020651Z AUTO 00000KT 02/M02 A3016 RMK AO1 SLP152
T00171017 402061028





000
SAUS45 KPIH 020552
MTRSNT
METAR KSNT 020551Z AUTO 17004KT 04/M01 A3015 RMK AO1 SLP146
T00391011 10206 20028 50004





000
SAUS45 KPIH 020452
MTRSNT
METAR KSNT 020451Z AUTO 17004KT 05/M01 A3016 RMK AO1 SLP154
T00501006





000
SAUS45 KPIH 020352
MTRSNT
METAR KSNT 020351Z AUTO 19005KT 08/00 A3015 RMK AO1 SLP157 T00780000





000
SAUS45 KPIH 020352
MTRSNT
METAR KSNT 020351Z AUTO 19005KT 08/00 A3015 RMK AO1 SLP157 T00780000





000
SAUS45 KPIH 020252
MTRSNT
METAR KSNT 020251Z AUTO 00000KT 09/01 A3014 RMK AO1 SLP161 T00940006
53005





000
SAUS45 KPIH 020152
MTRSNT
METAR KSNT 020151Z AUTO 00000KT 14/01 A3013 RMK AO1 SLP153 T01390011





000
SAUS45 KPIH 020052
MTRSNT
METAR KSNT 020051Z AUTO 30005KT 19/M01 A3013 RMK AO1 SLP144
T01891006





000
SAUS45 KPIH 012352
MTRSNT
METAR KSNT 012351Z AUTO 34009KT 19/M02 A3012 RMK AO1 SLP141
T01941022 10206 20150 55005





000
SAUS45 KPIH 012252
MTRSNT
METAR KSNT 012251Z AUTO 32010KT 19/M03 A3012 RMK AO1 SLP140
T01941033





000
SAUS45 KPIH 012152
MTRSNT
METAR KSNT 012151Z AUTO 35008KT 19/M03 A3013 RMK AO1 SLP138
T01941033





000
SAUS45 KPIH 012052
MTRSNT
METAR KSNT 012051Z AUTO 30010KT 19/M02 A3014 RMK AO1 SLP145
T01891022 56005





000
SAUS45 KPIH 011952
MTRSNT
METAR KSNT 011951Z AUTO 31010G15KT 18/M04 A3015 RMK AO1 SLP143
T01831039





000
SAUS45 KPIH 011852
MTRSNT
METAR KSNT 011851Z AUTO VRB04KT 17/M02 A3016 RMK AO1 SLP145
T01721017





000
SAUS45 KPIH 011752
MTRSNT
METAR KSNT 011751Z AUTO VRB04KT 16/M01 A3016 RMK AO1 SLP149
T01561011 10156 21028 58004





000
SAUS45 KPIH 011652
MTRSNT
METAR KSNT 011651Z AUTO VRB04KT 11/01 A3018 RMK AO1 SLP159 T01110006





000
SAUS45 KPIH 011552
MTRSNT
METAR KSNT 011551Z AUTO 00000KT 07/01 A3018 RMK AO1 SLP171 T00670006





000
SAUS45 KPIH 011452
MTRSNT
METAR KSNT 011451Z AUTO 09003KT 03/M01 A3018 RMK AO1 SLP178
T00281011 51007





000
SAUS45 KPIH 011352
MTRSNT
METAR KSNT 011351Z AUTO 12003KT M01/M02 A3018 RMK AO1 SLP173
T10111022





000
SAUS45 KPIH 011252
MTRSNT
METAR KSNT 011251Z AUTO 19003KT M02/M03 A3016 RMK AO1 SLP161
T10221033





000
SAUS45 KPIH 011152
MTRSNT
METAR KSNT 011151Z AUTO 17003KT M02/M03 A3015 RMK AO1 SLP156
T10221033 10056 21022 53005





000
SAUS45 KPIH 011052
MTRSNT
METAR KSNT 011051Z AUTO 17003KT M02/M03 A3014 RMK AO1 SLP154
T10171028





000
SAUS45 KPIH 010953
MTRSNT
METAR KSNT 010951Z AUTO 00000KT 01/M01 A3013 RMK AO1 SLP144
T00061011





000
SAUS45 KPIH 010852
MTRSNT
METAR KSNT 010851Z AUTO 16004KT 00/M01 A3013 RMK AO1 SLP144
T00001011 53005





000
SAUS45 KPIH 010752
MTRSNT
METAR KSNT 010751Z AUTO 16003KT 01/M01 A3012 RMK AO1 SLP141
T00111006





000
SAUS45 KPIH 010652
MTRSNT
METAR KSNT 010651Z AUTO 18003KT 04/01 A3012 RMK AO1 SLP134 T00390006
401830028





000
SAUS45 KPIH 010552
MTRSNT
METAR KSNT 010551Z AUTO 00000KT 04/01 A3011 RMK AO1 SLP137 T00390011
10178 20033 51007





000
SAUS45 KPIH 010452
MTRSNT
METAR KSNT 010451Z AUTO 23003KT 07/01 A3010 RMK AO1 SLP131 T00670011





000
SAUS45 KPIH 010352
MTRSNT
METAR KSNT 010351Z AUTO 21004KT 06/M01 A3011 RMK AO1 SLP138
T00611006





000
SAUS45 KPIH 010252
MTRSNT
METAR KSNT 010251Z AUTO 00000KT 07/M01 A3009 RMK AO1 SLP136
T00721006 51012





000
SAUS45 KPIH 010152
MTRSNT
METAR KSNT 010151Z AUTO VRB03KT 13/M01 A3008 RMK AO1 SLP122
T01331006





000
SAUS45 KPIH 010052
MTRSNT
METAR KSNT 010051Z AUTO VRB04KT 17/M02 A3006 RMK AO1 SLP109
T01671017





000
SAUS45 KPIH 312352
MTRSNT
METAR KSNT 312351Z AUTO 31006KT 18/M01 A3005 RMK AO1 SLP103
T01781011 10183 20128 58008





000
SAUS45 KPIH 312252
MTRSNT
METAR KSNT 312251Z AUTO 34007KT 17/M01 A3006 RMK AO1 SLP109
T01721011





000
SAUS45 KPIH 312152
MTRSNT
METAR KSNT 312151Z AUTO 33009KT 17/M01 A3007 RMK AO1 SLP113
T01721006





000
SAUS45 KPIH 312052
MTRSNT
METAR KSNT 312051Z AUTO 35009G16KT 17/M01 A3008 RMK AO1 SLP112
T01721006 57007





000
SAUS45 KPIH 311952
MTRSNT
METAR KSNT 311951Z AUTO VRB04KT 17/01 A3008 RMK AO1 SLP110 T01670006





000
SAUS45 KPIH 311853 COR
MTRSNT
METAR KSNT 311851Z AUTO 02007KT 16/02 A3009 RMK AO1 SLP118 T01560022





000
SAUS45 KPIH 311752
MTRSNT
METAR KSNT 311751Z AUTO VRB06KT 13/04 A3010 RMK AO1 SLP122 T01330039
10139 20044 53004





000
SAUS45 KPIH 311652
MTRSNT
METAR KSNT 311651Z AUTO 34004KT 12/04 A3009 RMK AO1 SLP120 T01170039





000
SAUS45 KPIH 311552
MTRSNT
METAR KSNT 311551Z AUTO 06004KT 10/06 A3009 RMK AO1 SLP126 T01000056





000
SAUS45 KPIH 311453
MTRSNT
METAR KSNT 311451Z AUTO 09005KT 07/05 A3009 RMK AO1 SLP126 T00670050
51013





000
SAUS45 KPIH 311352
MTRSNT
METAR KSNT 311351Z AUTO 00000KT 05/04 A3008 RMK AO1 SLP119 T00500044





000
SAUS45 KPIH 311252
MTRSNT
METAR KSNT 311251Z AUTO 00000KT 05/03 A3006 RMK AO1 SLP106 T00500033





000
SAUS45 KPIH 311152
MTRSNT
METAR KSNT 311151Z AUTO 00000KT 04/03 A3004 RMK AO1 SLP101 60001
70006 T00440033 10083 20028 53004





000
SAUS45 KPIH 311052
MTRSNT
METAR KSNT 311051Z AUTO 00000KT 03/03 A3003 RMK AO1 SLP100 T00330028





000
SAUS45 KPIH 310952
MTRSNT
METAR KSNT 310951Z AUTO 20003KT 03/03 A3002 RMK AO1 SLP095 T00330028





000
SAUS45 KPIH 310852
MTRSNT
METAR KSNT 310851Z AUTO 00000KT 06/04 A3002 RMK AO1 SLP090 60001
T00560044 56003





000
SAUS45 KPIH 310752
MTRSNT
METAR KSNT 310751Z AUTO 00000KT 07/06 A3002 RMK AO1 SLP088 T00720061





000
SAUS45 KPIH 310652
MTRSNT
METAR KSNT 310651Z AUTO 00000KT 08/06 A3002 RMK AO1 SLP087 P0001
T00780061 401940078





000
SAUS45 KPIH 310552
MTRSNT
METAR KSNT 310551Z AUTO 06003KT 08/06 A3004 RMK AO1 SLP094 P0002
60002 T00830056 10189 20083 53016





000
SAUS45 KPIH 310452
MTRSNT
METAR KSNT 310451Z AUTO 01009KT 10/05 A3001 RMK AO1 SLP086 T01000050





000
SAUS45 KPIH 310352
MTRSNT
METAR KSNT 310351Z AUTO 00000KT 09/02 A2998 RMK AO1 SLP086 T00890022





000
SAUS45 KPIH 310252
MTRSNT
METAR KSNT 310251Z AUTO VRB04KT 12/02 A2998 RMK AO1 SLP079 T01170022
51001





000
SAUS45 KPIH 310152
MTRSNT
METAR KSNT 310151Z AUTO 00000KT 15/02 A2997 RMK AO1 SLP072 T01500017





000
SAUS45 KPIH 310052
MTRSNT
METAR KSNT 310051Z AUTO VRB06KT 18/01 A2998 RMK AO1 SLP070 T01780011





000
SAUS45 KPIH 302352
MTRSNT
METAR KSNT 302351Z AUTO VRB05KT 17/02 A2998 RMK AO1 SLP071 T01720017
10194 20156 55003





000
SAUS45 KPIH 302252
MTRSNT
METAR KSNT 302251Z AUTO VRB03KT 18/02 A2997 RMK AO1 SLP064 T01780017





000
SAUS45 KPIH 302152
MTRSNT
METAR KSNT 302151Z AUTO VRB06G15KT 18/02 A2999 RMK AO1 SLP066
T01830022





000
SAUS45 KPIH 302052
MTRSNT
METAR KSNT 302051Z AUTO 29006KT 18/03 A2999 RMK AO1 SLP065 T01830028
58007





000
SAUS45 KPIH 301952
MTRSNT
METAR KSNT 301951Z AUTO VRB04KT 18/03 A3000 RMK AO1 SLP069 T01780033





000
SAUS45 KPIH 301852
MTRSNT
METAR KSNT 301851Z AUTO VRB03KT 17/04 A3001 RMK AO1 SLP070 T01720044





000
SAUS45 KPIH 301752
MTRSNT
METAR KSNT 301751Z AUTO 00000KT 16/06 A3002 RMK AO1 SLP072 60003
T01560061 10167 20083 56011





000
SAUS45 KPIH 301652
MTRSNT
METAR KSNT 301651Z AUTO 13004KT 14/09 A3002 RMK AO1 SLP074 T01390089





000
SAUS45 KPIH 301552
MTRSNT
METAR KSNT 301551Z AUTO 18008KT 11/09 A3003 RMK AO1 SLP081 P0001
T01110089





000
SAUS45 KPIH 301452
MTRSNT
METAR KSNT 301451Z AUTO 00000KT 10/09 A3006 RMK AO1 SLP096 60002
T01000089 51006





000
SAUS45 KPIH 301352
MTRSNT
METAR KSNT 301351Z AUTO 16006KT 09/08 A3005 RMK AO1 SLP083 P0001
T00940083





000
SAUS45 KPIH 301252
MTRSNT
METAR KSNT 301251Z AUTO 00000KT 09/08 A3005 RMK AO1 SLP078 P0001
T00890078





    US Dept of Commerce
    National Oceanic and Atmospheric Administration
    National Weather Service
    1325 East West Highway
    Silver Spring, MD 20910
    Page Author: NWS Internet Services Team
Disclaimer
Information Quality
Credits
Glossary
Privacy Policy
Freedom of Information Act (FOIA)
About Us
Career Opportunities